sensor_id;sensor_type;location;lat;lon;timestamp;pressure;altitude;pressure_sealevel;temperature;humidity
60019;BME280;45870;42.528;26.740;2023-02-28T00:00:49;100447.81;;;11.36;58.47
60019;BME280;45870;42.528;26.740;2023-02-28T00:03:15;100344.75;;;10.58;59.67
60019;BME280;45870;42.528;26.740;2023-02-28T00:05:41;100483.31;;;11.15;60.24
60019;BME280;45870;42.528;26.740;2023-02-28T00:08:07;100483.75;;;11.92;58.34
60019;BME280;45870;42.528;26.740;2023-02-28T00:10:33;100469.47;;;11.05;59.72
60019;BME280;45870;42.528;26.740;2023-02-28T00:13:04;100466.50;;;10.81;62.06
60019;BME280;45870;42.528;26.740;2023-02-28T00:15:31;100465.88;;;10.79;61.65
60019;BME280;45870;42.528;26.740;2023-02-28T00:17:57;100247.53;;;9.58;61.03
60019;BME280;45870;42.528;26.740;2023-02-28T00:20:23;100464.09;;;11.29;61.06
60019;BME280;45870;42.528;26.740;2023-02-28T00:22:51;100454.53;;;10.64;61.86
60019;BME280;45870;42.528;26.740;2023-02-28T00:25:21;100274.25;;;9.66;60.92
60019;BME280;45870;42.528;26.740;2023-02-28T00:27:47;100485.81;;;10.40;61.79
60019;BME280;45870;42.528;26.740;2023-02-28T00:30:16;100454.53;;;10.20;62.64
60019;BME280;45870;42.528;26.740;2023-02-28T00:32:42;100483.75;;;10.29;63.05
60019;BME280;45870;42.528;26.740;2023-02-28T00:35:08;100494.38;;;10.18;62.80
60019;BME280;45870;42.528;26.740;2023-02-28T00:37:35;100494.47;;;10.93;60.66
60019;BME280;45870;42.528;26.740;2023-02-28T00:40:01;100490.63;;;10.70;61.53
60019;BME280;45870;42.528;26.740;2023-02-28T00:42:27;100486.06;;;10.70;61.42
60019;BME280;45870;42.528;26.740;2023-02-28T00:44:53;100491.44;;;10.77;61.42
60019;BME280;45870;42.528;26.740;2023-02-28T00:47:19;100496.94;;;10.95;60.12
60019;BME280;45870;42.528;26.740;2023-02-28T00:49:45;100421.09;;;10.27;61.18
60019;BME280;45870;42.528;26.740;2023-02-28T00:52:11;100476.72;;;10.73;60.99
60019;BME280;45870;42.528;26.740;2023-02-28T00:54:37;100492.31;;;11.02;60.37
60019;BME280;45870;42.528;26.740;2023-02-28T00:57:02;100303.88;;;9.72;60.38
60019;BME280;45870;42.528;26.740;2023-02-28T00:59:28;100479.78;;;10.83;59.81
60019;BME280;45870;42.528;26.740;2023-02-28T01:01:54;100499.72;;;10.82;59.58
60019;BME280;45870;42.528;26.740;2023-02-28T01:04:19;100503.81;;;10.97;60.06
60019;BME280;45870;42.528;26.740;2023-02-28T01:06:45;100504.50;;;10.86;60.67
60019;BME280;45870;42.528;26.740;2023-02-28T01:09:11;100406.78;;;10.27;60.58
60019;BME280;45870;42.528;26.740;2023-02-28T01:11:37;100493.69;;;10.86;59.84
60019;BME280;45870;42.528;26.740;2023-02-28T01:14:03;100492.50;;;11.07;59.86
60019;BME280;45870;42.528;26.740;2023-02-28T01:16:30;100503.16;;;10.58;60.94
60019;BME280;45870;42.528;26.740;2023-02-28T01:18:56;100505.31;;;10.36;61.77
60019;BME280;45870;42.528;26.740;2023-02-28T01:21:22;100515.59;;;11.34;58.97
60019;BME280;45870;42.528;26.740;2023-02-28T01:23:48;100517.66;;;11.08;59.80
60019;BME280;45870;42.528;26.740;2023-02-28T01:26:18;100524.44;;;11.48;57.80
60019;BME280;45870;42.528;26.740;2023-02-28T01:28:44;100527.69;;;11.00;60.22
60019;BME280;45870;42.528;26.740;2023-02-28T01:31:10;100470.22;;;10.42;60.54
60019;BME280;45870;42.528;26.740;2023-02-28T01:33:37;100516.00;;;10.69;61.05
60019;BME280;45870;42.528;26.740;2023-02-28T01:36:06;100513.09;;;10.64;61.12
60019;BME280;45870;42.528;26.740;2023-02-28T01:38:33;100506.53;;;10.46;61.91
60019;BME280;45870;42.528;26.740;2023-02-28T01:40:59;100491.75;;;10.62;61.56
60019;BME280;45870;42.528;26.740;2023-02-28T01:43:28;100522.13;;;10.31;61.64
60019;BME280;45870;42.528;26.740;2023-02-28T01:45:56;100531.13;;;10.76;60.96
60019;BME280;45870;42.528;26.740;2023-02-28T01:48:27;100530.09;;;10.71;61.50
60019;BME280;45870;42.528;26.740;2023-02-28T01:50:58;100529.13;;;10.59;61.63
60019;BME280;45870;42.528;26.740;2023-02-28T01:53:32;100522.00;;;10.20;62.73
60019;BME280;45870;42.528;26.740;2023-02-28T01:56:00;100456.69;;;9.85;62.62
60019;BME280;45870;42.528;26.740;2023-02-28T01:58:29;100515.94;;;10.24;62.91
60019;BME280;45870;42.528;26.740;2023-02-28T02:00:54;100522.50;;;10.55;62.42
60019;BME280;45870;42.528;26.740;2023-02-28T02:03:20;100538.50;;;10.43;63.10
60019;BME280;45870;42.528;26.740;2023-02-28T02:05:46;100536.56;;;10.63;62.10
60019;BME280;45870;42.528;26.740;2023-02-28T02:08:21;100518.88;;;10.16;63.15
60019;BME280;45870;42.528;26.740;2023-02-28T02:10:50;100547.03;;;10.40;62.50
60019;BME280;45870;42.528;26.740;2023-02-28T02:13:37;100528.63;;;10.75;61.45
60019;BME280;45870;42.528;26.740;2023-02-28T02:30:42;100539.16;;;10.32;62.92
60019;BME280;45870;42.528;26.740;2023-02-28T02:36:12;100542.47;;;10.40;63.38
60019;BME280;45870;42.528;26.740;2023-02-28T02:43:46;100556.16;;;10.39;62.45
60019;BME280;45870;42.528;26.740;2023-02-28T02:46:29;100552.22;;;10.35;62.72
60019;BME280;45870;42.528;26.740;2023-02-28T02:48:59;100528.09;;;10.53;62.20
60019;BME280;45870;42.528;26.740;2023-02-28T02:51:27;100547.78;;;10.60;61.30
60019;BME280;45870;42.528;26.740;2023-02-28T02:53:57;100558.03;;;10.51;62.45
60019;BME280;45870;42.528;26.740;2023-02-28T02:56:28;100558.91;;;10.13;63.90
60019;BME280;45870;42.528;26.740;2023-02-28T02:58:58;100560.63;;;11.16;60.63
60019;BME280;45870;42.528;26.740;2023-02-28T03:01:25;100551.59;;;10.97;61.27
60019;BME280;45870;42.528;26.740;2023-02-28T03:04:03;100568.50;;;11.17;60.44
60019;BME280;45870;42.528;26.740;2023-02-28T03:06:29;100559.72;;;11.28;60.67
60019;BME280;45870;42.528;26.740;2023-02-28T03:08:55;100564.34;;;11.21;60.89
60019;BME280;45870;42.528;26.740;2023-02-28T03:11:20;100565.81;;;10.79;61.93
60019;BME280;45870;42.528;26.740;2023-02-28T03:16:34;100564.09;;;10.85;61.78
60019;BME280;45870;42.528;26.740;2023-02-28T03:19:23;100557.03;;;10.33;63.35
60019;BME280;45870;42.528;26.740;2023-02-28T03:24:54;100576.22;;;11.14;61.47
60019;BME280;45870;42.528;26.740;2023-02-28T03:27:27;100578.91;;;10.76;62.45
60019;BME280;45870;42.528;26.740;2023-02-28T03:30:09;100566.16;;;10.89;62.01
60019;BME280;45870;42.528;26.740;2023-02-28T03:32:44;100580.50;;;10.90;61.58
60019;BME280;45870;42.528;26.740;2023-02-28T03:35:21;100520.06;;;10.33;63.30
60019;BME280;45870;42.528;26.740;2023-02-28T03:37:53;100571.97;;;10.93;62.00
60019;BME280;45870;42.528;26.740;2023-02-28T03:40:25;100572.34;;;11.03;62.56
60019;BME280;45870;42.528;26.740;2023-02-28T03:42:58;100546.88;;;10.86;62.06
60019;BME280;45870;42.528;26.740;2023-02-28T03:45:29;100559.16;;;10.75;62.81
60019;BME280;45870;42.528;26.740;2023-02-28T03:50:40;100574.91;;;10.85;62.47
60019;BME280;45870;42.528;26.740;2023-02-28T03:55:49;100577.03;;;11.21;61.04
60019;BME280;45870;42.528;26.740;2023-02-28T03:58:26;100579.72;;;10.83;62.84
60019;BME280;45870;42.528;26.740;2023-02-28T04:01:11;100577.66;;;10.72;62.45
60019;BME280;45870;42.528;26.740;2023-02-28T04:03:38;100574.72;;;10.86;61.57
60019;BME280;45870;42.528;26.740;2023-02-28T04:06:07;100568.22;;;10.36;63.91
60019;BME280;45870;42.528;26.740;2023-02-28T04:08:36;100564.28;;;9.99;64.78
60019;BME280;45870;42.528;26.740;2023-02-28T04:11:08;100568.59;;;10.46;63.41
60019;BME280;45870;42.528;26.740;2023-02-28T04:13:40;100574.03;;;10.33;63.39
60019;BME280;45870;42.528;26.740;2023-02-28T04:16:09;100569.28;;;10.22;63.83
60019;BME280;45870;42.528;26.740;2023-02-28T04:18:40;100586.66;;;10.46;63.66
60019;BME280;45870;42.528;26.740;2023-02-28T04:21:08;100582.31;;;10.51;62.66
60019;BME280;45870;42.528;26.740;2023-02-28T04:23:34;100592.19;;;10.71;62.80
60019;BME280;45870;42.528;26.740;2023-02-28T04:26:00;100594.84;;;10.90;61.55
60019;BME280;45870;42.528;26.740;2023-02-28T04:28:25;100592.16;;;10.84;61.34
60019;BME280;45870;42.528;26.740;2023-02-28T04:30:57;100591.81;;;10.61;63.23
60019;BME280;45870;42.528;26.740;2023-02-28T04:33:22;100591.06;;;10.40;63.28
60019;BME280;45870;42.528;26.740;2023-02-28T04:35:48;100539.53;;;10.48;62.24
60019;BME280;45870;42.528;26.740;2023-02-28T04:38:22;100594.31;;;10.62;62.42
60019;BME280;45870;42.528;26.740;2023-02-28T04:40:48;100590.16;;;10.60;62.43
60019;BME280;45870;42.528;26.740;2023-02-28T04:43:14;100592.28;;;10.31;63.73
60019;BME280;45870;42.528;26.740;2023-02-28T04:45:40;100589.44;;;10.20;63.94
60019;BME280;45870;42.528;26.740;2023-02-28T04:48:05;100593.56;;;10.02;64.71
60019;BME280;45870;42.528;26.740;2023-02-28T04:50:33;100581.53;;;9.92;64.50
60019;BME280;45870;42.528;26.740;2023-02-28T04:52:59;100598.09;;;10.35;63.35
60019;BME280;45870;42.528;26.740;2023-02-28T04:55:25;100600.88;;;10.86;61.61
60019;BME280;45870;42.528;26.740;2023-02-28T04:57:51;100607.41;;;10.59;62.42
60019;BME280;45870;42.528;26.740;2023-02-28T05:00:17;100616.53;;;11.22;60.90
60019;BME280;45870;42.528;26.740;2023-02-28T05:02:46;100618.25;;;10.32;63.47
60019;BME280;45870;42.528;26.740;2023-02-28T05:05:12;100615.91;;;11.13;61.21
60019;BME280;45870;42.528;26.740;2023-02-28T05:07:44;100616.44;;;10.84;61.31
60019;BME280;45870;42.528;26.740;2023-02-28T05:10:10;100625.63;;;10.76;62.82
60019;BME280;45870;42.528;26.740;2023-02-28T05:12:37;100638.00;;;10.20;64.12
60019;BME280;45870;42.528;26.740;2023-02-28T05:15:03;100630.22;;;10.63;62.58
60019;BME280;45870;42.528;26.740;2023-02-28T05:17:30;100636.09;;;10.46;62.29
60019;BME280;45870;42.528;26.740;2023-02-28T05:19:56;100611.81;;;9.87;64.05
60019;BME280;45870;42.528;26.740;2023-02-28T05:22:21;100643.47;;;10.77;61.70
60019;BME280;45870;42.528;26.740;2023-02-28T05:24:48;100638.81;;;10.33;63.56
60019;BME280;45870;42.528;26.740;2023-02-28T05:27:13;100635.88;;;10.09;64.52
60019;BME280;45870;42.528;26.740;2023-02-28T05:29:39;100642.53;;;10.32;63.51
60019;BME280;45870;42.528;26.740;2023-02-28T05:32:11;100643.97;;;10.55;63.23
60019;BME280;45870;42.528;26.740;2023-02-28T05:34:40;100651.84;;;10.56;62.07
60019;BME280;45870;42.528;26.740;2023-02-28T05:37:11;100664.28;;;11.72;59.94
60019;BME280;45870;42.528;26.740;2023-02-28T05:39:37;100672.16;;;10.72;62.46
60019;BME280;45870;42.528;26.740;2023-02-28T05:42:04;100675.06;;;10.77;61.74
60019;BME280;45870;42.528;26.740;2023-02-28T05:44:30;100668.88;;;10.57;63.27
60019;BME280;45870;42.528;26.740;2023-02-28T05:46:55;100681.50;;;10.63;62.46
60019;BME280;45870;42.528;26.740;2023-02-28T05:49:21;100593.97;;;9.60;63.94
60019;BME280;45870;42.528;26.740;2023-02-28T05:51:47;100528.25;;;9.48;62.55
60019;BME280;45870;42.528;26.740;2023-02-28T05:54:13;100691.09;;;10.59;61.30
60019;BME280;45870;42.528;26.740;2023-02-28T05:56:39;100693.38;;;10.48;62.19
60019;BME280;45870;42.528;26.740;2023-02-28T05:59:06;100699.22;;;10.32;62.44
60019;BME280;45870;42.528;26.740;2023-02-28T06:01:37;100653.75;;;10.16;62.46
60019;BME280;45870;42.528;26.740;2023-02-28T06:04:05;100660.81;;;10.37;61.76
60019;BME280;45870;42.528;26.740;2023-02-28T06:06:31;100682.31;;;10.83;61.03
60019;BME280;45870;42.528;26.740;2023-02-28T06:09:00;100688.78;;;10.75;62.11
60019;BME280;45870;42.528;26.740;2023-02-28T06:11:26;100689.50;;;11.15;60.75
60019;BME280;45870;42.528;26.740;2023-02-28T06:13:59;100441.81;;;9.10;62.04
60019;BME280;45870;42.528;26.740;2023-02-28T06:16:27;100507.50;;;9.42;61.66
60019;BME280;45870;42.528;26.740;2023-02-28T06:18:54;100689.44;;;10.38;62.84
60019;BME280;45870;42.528;26.740;2023-02-28T06:21:21;100685.53;;;10.34;62.49
60019;BME280;45870;42.528;26.740;2023-02-28T06:23:47;100669.50;;;10.13;63.33
60019;BME280;45870;42.528;26.740;2023-02-28T06:26:13;100695.25;;;10.61;62.26
60019;BME280;45870;42.528;26.740;2023-02-28T06:28:39;100693.38;;;10.68;61.85
60019;BME280;45870;42.528;26.740;2023-02-28T06:31:09;100692.75;;;10.53;62.60
60019;BME280;45870;42.528;26.740;2023-02-28T06:33:36;100574.50;;;9.84;61.88
60019;BME280;45870;42.528;26.740;2023-02-28T06:36:02;100696.06;;;10.48;62.69
60019;BME280;45870;42.528;26.740;2023-02-28T06:38:28;100703.59;;;10.20;64.17
60019;BME280;45870;42.528;26.740;2023-02-28T06:40:55;100696.47;;;10.06;65.03
60019;BME280;45870;42.528;26.740;2023-02-28T06:43:22;100685.69;;;10.06;64.71
60019;BME280;45870;42.528;26.740;2023-02-28T06:45:48;100616.19;;;10.01;63.64
60019;BME280;45870;42.528;26.740;2023-02-28T06:48:14;100701.22;;;10.70;62.46
60019;BME280;45870;42.528;26.740;2023-02-28T06:50:39;100687.78;;;10.43;63.30
60019;BME280;45870;42.528;26.740;2023-02-28T06:53:05;100689.00;;;10.61;63.00
60019;BME280;45870;42.528;26.740;2023-02-28T06:55:31;100682.03;;;11.11;61.98
60019;BME280;45870;42.528;26.740;2023-02-28T06:57:58;100688.16;;;10.73;63.16
60019;BME280;45870;42.528;26.740;2023-02-28T07:00:24;100674.66;;;10.80;63.22
60019;BME280;45870;42.528;26.740;2023-02-28T07:02:50;100679.06;;;10.35;63.60
60019;BME280;45870;42.528;26.740;2023-02-28T07:05:16;100663.69;;;10.55;62.95
60019;BME280;45870;42.528;26.740;2023-02-28T07:07:42;100704.34;;;10.73;62.82
60019;BME280;45870;42.528;26.740;2023-02-28T07:10:11;100711.72;;;11.17;62.08
60019;BME280;45870;42.528;26.740;2023-02-28T07:12:37;100686.19;;;11.07;61.31
60019;BME280;45870;42.528;26.740;2023-02-28T07:15:04;100705.16;;;10.93;61.97
60019;BME280;45870;42.528;26.740;2023-02-28T07:17:30;100706.22;;;10.66;62.42
60019;BME280;45870;42.528;26.740;2023-02-28T07:19:56;100702.50;;;10.67;63.16
60019;BME280;45870;42.528;26.740;2023-02-28T07:22:23;100708.72;;;10.68;64.00
60019;BME280;45870;42.528;26.740;2023-02-28T07:24:50;100703.28;;;10.87;62.20
60019;BME280;45870;42.528;26.740;2023-02-28T07:27:15;100709.97;;;11.42;60.69
60019;BME280;45870;42.528;26.740;2023-02-28T07:29:49;100708.41;;;11.22;60.81
60019;BME280;45870;42.528;26.740;2023-02-28T07:32:15;100708.91;;;10.86;62.82
60019;BME280;45870;42.528;26.740;2023-02-28T07:34:41;100700.88;;;11.24;60.56
60019;BME280;45870;42.528;26.740;2023-02-28T07:37:07;100707.44;;;10.90;61.85
60019;BME280;45870;42.528;26.740;2023-02-28T07:39:33;100705.03;;;10.29;63.31
60019;BME280;45870;42.528;26.740;2023-02-28T07:41:58;100713.81;;;11.15;61.98
60019;BME280;45870;42.528;26.740;2023-02-28T07:44:25;100711.06;;;11.28;61.46
60019;BME280;45870;42.528;26.740;2023-02-28T07:46:51;100717.41;;;11.47;60.24
60019;BME280;45870;42.528;26.740;2023-02-28T07:49:18;100722.59;;;11.04;61.00
60019;BME280;45870;42.528;26.740;2023-02-28T07:51:44;100717.72;;;11.70;59.65
60019;BME280;45870;42.528;26.740;2023-02-28T07:54:09;100715.28;;;11.11;61.28
60019;BME280;45870;42.528;26.740;2023-02-28T07:56:35;100707.63;;;10.95;62.25
60019;BME280;45870;42.528;26.740;2023-02-28T07:59:00;100716.38;;;11.48;60.59
60019;BME280;45870;42.528;26.740;2023-02-28T08:01:27;100699.47;;;11.15;60.49
60019;BME280;45870;42.528;26.740;2023-02-28T08:03:52;100716.78;;;11.96;58.88
60019;BME280;45870;42.528;26.740;2023-02-28T08:06:21;100690.53;;;12.03;58.67
60019;BME280;45870;42.528;26.740;2023-02-28T08:08:48;100712.13;;;11.65;59.21
60019;BME280;45870;42.528;26.740;2023-02-28T08:11:14;100711.22;;;11.46;59.40
60019;BME280;45870;42.528;26.740;2023-02-28T08:13:40;100708.28;;;11.92;59.24
60019;BME280;45870;42.528;26.740;2023-02-28T08:16:07;100709.88;;;11.62;59.76
60019;BME280;45870;42.528;26.740;2023-02-28T08:18:33;100688.22;;;11.24;60.58
60019;BME280;45870;42.528;26.740;2023-02-28T08:20:59;100690.59;;;11.01;60.94
60019;BME280;45870;42.528;26.740;2023-02-28T08:23:25;100500.34;;;10.33;60.50
60019;BME280;45870;42.528;26.740;2023-02-28T08:25:59;100697.13;;;11.76;60.51
60019;BME280;45870;42.528;26.740;2023-02-28T08:28:24;100706.94;;;11.19;61.01
60019;BME280;45870;42.528;26.740;2023-02-28T08:30:50;100717.53;;;12.10;59.38
60019;BME280;45870;42.528;26.740;2023-02-28T08:33:16;100717.00;;;11.50;60.34
60019;BME280;45870;42.528;26.740;2023-02-28T08:35:41;100713.28;;;11.44;60.61
60019;BME280;45870;42.528;26.740;2023-02-28T08:38:07;100710.56;;;11.44;60.33
60019;BME280;45870;42.528;26.740;2023-02-28T08:40:33;100718.06;;;11.87;60.31
60019;BME280;45870;42.528;26.740;2023-02-28T08:42:58;100731.09;;;11.59;60.54
60019;BME280;45870;42.528;26.740;2023-02-28T08:45:28;100724.69;;;10.89;61.86
60019;BME280;45870;42.528;26.740;2023-02-28T08:47:54;100579.34;;;10.66;60.19
60019;BME280;45870;42.528;26.740;2023-02-28T08:50:21;100699.88;;;11.63;59.74
60019;BME280;45870;42.528;26.740;2023-02-28T08:52:46;100701.44;;;11.83;60.01
60019;BME280;45870;42.528;26.740;2023-02-28T08:55:12;100713.81;;;11.66;59.81
60019;BME280;45870;42.528;26.740;2023-02-28T08:57:38;100714.06;;;11.07;61.60
60019;BME280;45870;42.528;26.740;2023-02-28T09:00:04;100714.03;;;11.58;60.70
60019;BME280;45870;42.528;26.740;2023-02-28T09:02:31;100719.06;;;10.97;62.39
60019;BME280;45870;42.528;26.740;2023-02-28T09:04:57;100727.47;;;11.33;61.20
60019;BME280;45870;42.528;26.740;2023-02-28T09:07:24;100721.16;;;11.52;60.92
60019;BME280;45870;42.528;26.740;2023-02-28T09:09:50;100720.03;;;11.22;60.85
60019;BME280;45870;42.528;26.740;2023-02-28T09:12:20;100727.53;;;11.71;59.49
60019;BME280;45870;42.528;26.740;2023-02-28T09:14:46;100739.47;;;11.44;60.68
60019;BME280;45870;42.528;26.740;2023-02-28T09:17:12;100736.72;;;12.01;59.35
60019;BME280;45870;42.528;26.740;2023-02-28T09:19:37;100735.44;;;11.66;59.95
60019;BME280;45870;42.528;26.740;2023-02-28T09:22:03;100728.47;;;11.45;60.71
60019;BME280;45870;42.528;26.740;2023-02-28T09:24:28;100703.53;;;11.37;60.76
60019;BME280;45870;42.528;26.740;2023-02-28T09:26:57;100736.16;;;11.42;60.70
60019;BME280;45870;42.528;26.740;2023-02-28T09:29:22;100742.28;;;11.18;62.17
60019;BME280;45870;42.528;26.740;2023-02-28T09:31:48;100733.63;;;11.98;59.22
60019;BME280;45870;42.528;26.740;2023-02-28T09:34:14;100692.59;;;11.25;61.00
60019;BME280;45870;42.528;26.740;2023-02-28T09:36:41;100645.75;;;10.87;60.60
60019;BME280;45870;42.528;26.740;2023-02-28T09:39:06;100725.47;;;11.09;61.31
60019;BME280;45870;42.528;26.740;2023-02-28T09:41:38;100610.25;;;10.77;61.12
60019;BME280;45870;42.528;26.740;2023-02-28T09:46:51;100723.25;;;10.86;63.07
60019;BME280;45870;42.528;26.740;2023-02-28T09:49:24;100728.34;;;11.21;61.57
60019;BME280;45870;42.528;26.740;2023-02-28T09:52:08;100722.25;;;11.38;61.42
60019;BME280;45870;42.528;26.740;2023-02-28T09:54:35;100727.81;;;10.66;63.26
60019;BME280;45870;42.528;26.740;2023-02-28T10:02:38;100721.75;;;11.03;62.77
60019;BME280;45870;42.528;26.740;2023-02-28T10:05:12;100515.53;;;10.21;60.38
60019;BME280;45870;42.528;26.740;2023-02-28T10:07:59;100632.28;;;10.74;62.05
60019;BME280;45870;42.528;26.740;2023-02-28T10:10:36;100706.13;;;11.19;61.40
60019;BME280;45870;42.528;26.740;2023-02-28T10:13:11;100690.59;;;11.90;59.83
60019;BME280;45870;42.528;26.740;2023-02-28T10:15:38;100691.81;;;11.56;60.84
60019;BME280;45870;42.528;26.740;2023-02-28T10:18:09;100687.09;;;11.83;60.25
60019;BME280;45870;42.528;26.740;2023-02-28T10:20:39;100680.50;;;11.28;61.14
60019;BME280;45870;42.528;26.740;2023-02-28T10:23:20;100681.19;;;11.54;61.37
60019;BME280;45870;42.528;26.740;2023-02-28T10:25:54;100685.13;;;11.59;60.98
60019;BME280;45870;42.528;26.740;2023-02-28T10:28:20;100673.22;;;11.66;60.40
60019;BME280;45870;42.528;26.740;2023-02-28T10:30:53;100668.78;;;11.85;60.74
60019;BME280;45870;42.528;26.740;2023-02-28T10:33:30;100675.00;;;11.47;60.94
60019;BME280;45870;42.528;26.740;2023-02-28T10:35:57;100676.63;;;11.55;59.86
60019;BME280;45870;42.528;26.740;2023-02-28T10:38:34;100669.56;;;11.92;60.30
60019;BME280;45870;42.528;26.740;2023-02-28T10:41:16;100666.84;;;11.54;60.54
60019;BME280;45870;42.528;26.740;2023-02-28T10:43:44;100674.88;;;11.36;61.07
60019;BME280;45870;42.528;26.740;2023-02-28T10:46:15;100661.53;;;10.90;62.61
60019;BME280;45870;42.528;26.740;2023-02-28T10:49:02;100665.16;;;11.60;60.77
60019;BME280;45870;42.528;26.740;2023-02-28T10:51:35;100654.09;;;11.68;60.33
60019;BME280;45870;42.528;26.740;2023-02-28T10:54:03;100593.41;;;10.81;61.80
60019;BME280;45870;42.528;26.740;2023-02-28T10:56:29;100658.50;;;11.93;60.29
60019;BME280;45870;42.528;26.740;2023-02-28T10:59:02;100614.06;;;11.14;60.93
60019;BME280;45870;42.528;26.740;2023-02-28T11:01:40;100657.44;;;11.25;61.47
60019;BME280;45870;42.528;26.740;2023-02-28T11:04:32;100651.28;;;11.05;61.81
60019;BME280;45870;42.528;26.740;2023-02-28T11:07:17;100639.75;;;11.29;61.52
60019;BME280;45870;42.528;26.740;2023-02-28T11:09:49;100642.50;;;11.61;60.60
60019;BME280;45870;42.528;26.740;2023-02-28T11:12:36;100643.94;;;11.63;59.96
60019;BME280;45870;42.528;26.740;2023-02-28T11:15:06;100640.47;;;11.12;61.98
60019;BME280;45870;42.528;26.740;2023-02-28T11:17:44;100640.72;;;11.79;60.06
60019;BME280;45870;42.528;26.740;2023-02-28T11:20:21;100639.06;;;11.40;60.67
60019;BME280;45870;42.528;26.740;2023-02-28T11:22:50;100584.69;;;11.24;59.51
60019;BME280;45870;42.528;26.740;2023-02-28T11:25:24;100637.09;;;11.92;59.09
60019;BME280;45870;42.528;26.740;2023-02-28T11:27:56;100641.75;;;11.40;59.52
60019;BME280;45870;42.528;26.740;2023-02-28T11:30:27;100642.91;;;11.20;61.29
60019;BME280;45870;42.528;26.740;2023-02-28T11:32:53;100653.72;;;11.20;60.95
60019;BME280;45870;42.528;26.740;2023-02-28T11:37:57;100648.16;;;12.15;58.68
60019;BME280;45870;42.528;26.740;2023-02-28T11:43:30;100646.53;;;11.83;60.02
60019;BME280;45870;42.528;26.740;2023-02-28T11:48:47;100644.31;;;11.35;61.09
60019;BME280;45870;42.528;26.740;2023-02-28T11:51:31;100586.38;;;10.74;61.38
60019;BME280;45870;42.528;26.740;2023-02-28T11:56:48;100633.59;;;11.53;59.20
60019;BME280;45870;42.528;26.740;2023-02-28T11:59:36;100620.56;;;11.69;58.43
60019;BME280;45870;42.528;26.740;2023-02-28T12:10:42;100618.16;;;11.23;59.71
60019;BME280;45870;42.528;26.740;2023-02-28T12:16:18;100607.00;;;11.44;58.94
60019;BME280;45870;42.528;26.740;2023-02-28T12:19:06;100638.22;;;11.46;60.10
60019;BME280;45870;42.528;26.740;2023-02-28T12:21:50;100600.75;;;11.12;60.79
60019;BME280;45870;42.528;26.740;2023-02-28T12:24:31;100627.75;;;11.19;61.87
60019;BME280;45870;42.528;26.740;2023-02-28T12:27:03;100625.22;;;11.24;61.88
60019;BME280;45870;42.528;26.740;2023-02-28T12:29:47;100625.09;;;11.43;60.97
60019;BME280;45870;42.528;26.740;2023-02-28T12:32:35;100615.91;;;11.13;61.99
60019;BME280;45870;42.528;26.740;2023-02-28T12:37:43;100609.59;;;11.32;61.84
60019;BME280;45870;42.528;26.740;2023-02-28T12:40:14;100618.66;;;12.07;59.21
60019;BME280;45870;42.528;26.740;2023-02-28T12:42:46;100618.25;;;12.28;58.08
60019;BME280;45870;42.528;26.740;2023-02-28T12:45:31;100609.09;;;12.05;58.34
60019;BME280;45870;42.528;26.740;2023-02-28T12:48:04;100614.13;;;11.70;60.00
60019;BME280;45870;42.528;26.740;2023-02-28T12:50:32;100615.31;;;11.49;59.64
60019;BME280;45870;42.528;26.740;2023-02-28T12:58:43;100603.66;;;11.17;60.90
60019;BME280;45870;42.528;26.740;2023-02-28T13:08:53;100615.44;;;11.23;61.62
60019;BME280;45870;42.528;26.740;2023-02-28T13:14:05;100593.09;;;10.58;63.82
60019;BME280;45870;42.528;26.740;2023-02-28T13:16:59;100599.72;;;11.13;62.31
60019;BME280;45870;42.528;26.740;2023-02-28T13:19:31;100594.81;;;11.35;61.85
60019;BME280;45870;42.528;26.740;2023-02-28T13:21:57;100617.13;;;11.55;61.22
60019;BME280;45870;42.528;26.740;2023-02-28T13:24:40;100615.56;;;11.41;61.06
60019;BME280;45870;42.528;26.740;2023-02-28T13:29:38;100614.41;;;11.24;61.47
60019;BME280;45870;42.528;26.740;2023-02-28T13:34:35;100617.13;;;11.24;61.58
60019;BME280;45870;42.528;26.740;2023-02-28T13:42:34;100603.84;;;10.65;63.83
60019;BME280;45870;42.528;26.740;2023-02-28T13:47:32;100606.84;;;10.30;64.81
60019;BME280;45870;42.528;26.740;2023-02-28T13:58:10;100598.47;;;10.65;64.19
60019;BME280;45870;42.528;26.740;2023-02-28T14:03:41;100588.75;;;10.44;63.69
60019;BME280;45870;42.528;26.740;2023-02-28T14:06:29;100593.50;;;10.62;63.07
60019;BME280;45870;42.528;26.740;2023-02-28T14:09:00;100551.66;;;10.00;65.13
60019;BME280;45870;42.528;26.740;2023-02-28T14:11:38;100576.22;;;10.63;63.79
60019;BME280;45870;42.528;26.740;2023-02-28T14:14:05;100605.13;;;10.49;64.26
60019;BME280;45870;42.528;26.740;2023-02-28T14:16:46;100602.91;;;10.97;62.83
60019;BME280;45870;42.528;26.740;2023-02-28T14:19:27;100599.16;;;10.40;64.64
60019;BME280;45870;42.528;26.740;2023-02-28T14:25:18;100598.88;;;10.68;63.78
60019;BME280;45870;42.528;26.740;2023-02-28T14:36:06;100604.97;;;10.18;65.04
60019;BME280;45870;42.528;26.740;2023-02-28T14:41:36;100611.38;;;10.43;65.23
60019;BME280;45870;42.528;26.740;2023-02-28T14:44:25;100615.50;;;10.52;65.03
60019;BME280;45870;42.528;26.740;2023-02-28T14:47:02;100573.22;;;10.33;64.76
60019;BME280;45870;42.528;26.740;2023-02-28T14:49:42;100613.50;;;10.21;65.45
60019;BME280;45870;42.528;26.740;2023-02-28T14:52:15;100614.53;;;10.27;64.71
60019;BME280;45870;42.528;26.740;2023-02-28T14:54:43;100619.31;;;10.18;65.81